sensor_id;sensor_type;location;lat;lon;timestamp;P1;durP1;ratioP1;P2;durP2;ratioP2
10847;SDS011;5477;48.806;9.154;2022-12-07T00:01:18;7.40;;;5.10;;
10847;SDS011;5477;48.806;9.154;2022-12-07T00:03:47;7.53;;;5.80;;
10847;SDS011;5477;48.806;9.154;2022-12-07T00:06:17;7.67;;;5.50;;
10847;SDS011;5477;48.806;9.154;2022-12-07T00:08:45;7.93;;;5.70;;
10847;SDS011;5477;48.806;9.154;2022-12-07T00:11:15;6.17;;;5.37;;
10847;SDS011;5477;48.806;9.154;2022-12-07T00:13:44;8.00;;;6.27;;
10847;SDS011;5477;48.806;9.154;2022-12-07T00:16:13;7.17;;;5.40;;
10847;SDS011;5477;48.806;9.154;2022-12-07T00:18:44;8.70;;;6.10;;
10847;SDS011;5477;48.806;9.154;2022-12-07T00:21:14;7.30;;;5.73;;
10847;SDS011;5477;48.806;9.154;2022-12-07T00:23:44;7.47;;;5.70;;
10847;SDS011;5477;48.806;9.154;2022-12-07T00:26:14;7.33;;;6.00;;
10847;SDS011;5477;48.806;9.154;2022-12-07T00:28:45;8.27;;;6.07;;
10847;SDS011;5477;48.806;9.154;2022-12-07T00:31:14;6.20;;;5.40;;
10847;SDS011;5477;48.806;9.154;2022-12-07T00:33:45;8.53;;;6.30;;
10847;SDS011;5477;48.806;9.154;2022-12-07T00:36:14;8.17;;;6.33;;
10847;SDS011;5477;48.806;9.154;2022-12-07T00:38:51;7.73;;;6.13;;
10847;SDS011;5477;48.806;9.154;2022-12-07T00:41:20;7.67;;;5.77;;
10847;SDS011;5477;48.806;9.154;2022-12-07T00:43:49;8.33;;;6.93;;
10847;SDS011;5477;48.806;9.154;2022-12-07T00:46:18;8.33;;;6.37;;
10847;SDS011;5477;48.806;9.154;2022-12-07T00:48:48;11.93;;;6.47;;
10847;SDS011;5477;48.806;9.154;2022-12-07T00:51:18;7.17;;;6.00;;
10847;SDS011;5477;48.806;9.154;2022-12-07T00:53:48;11.57;;;6.87;;
10847;SDS011;5477;48.806;9.154;2022-12-07T00:56:17;7.77;;;6.00;;
10847;SDS011;5477;48.806;9.154;2022-12-07T00:58:49;10.33;;;6.80;;
10847;SDS011;5477;48.806;9.154;2022-12-07T01:01:18;10.07;;;6.77;;
10847;SDS011;5477;48.806;9.154;2022-12-07T01:03:46;7.57;;;6.37;;
10847;SDS011;5477;48.806;9.154;2022-12-07T01:06:16;8.67;;;6.97;;
10847;SDS011;5477;48.806;9.154;2022-12-07T01:08:45;11.13;;;7.20;;
10847;SDS011;5477;48.806;9.154;2022-12-07T01:11:15;10.13;;;7.03;;
10847;SDS011;5477;48.806;9.154;2022-12-07T01:13:44;12.00;;;6.47;;
10847;SDS011;5477;48.806;9.154;2022-12-07T01:16:13;9.50;;;7.10;;
10847;SDS011;5477;48.806;9.154;2022-12-07T01:18:45;10.20;;;6.70;;
10847;SDS011;5477;48.806;9.154;2022-12-07T01:21:15;8.83;;;7.00;;
10847;SDS011;5477;48.806;9.154;2022-12-07T01:23:45;8.17;;;6.43;;
10847;SDS011;5477;48.806;9.154;2022-12-07T01:26:13;8.73;;;6.67;;
10847;SDS011;5477;48.806;9.154;2022-12-07T01:28:43;8.53;;;6.70;;
10847;SDS011;5477;48.806;9.154;2022-12-07T01:31:12;9.30;;;7.43;;
10847;SDS011;5477;48.806;9.154;2022-12-07T01:33:42;9.63;;;6.87;;
10847;SDS011;5477;48.806;9.154;2022-12-07T01:36:13;9.87;;;6.73;;
10847;SDS011;5477;48.806;9.154;2022-12-07T01:38:44;8.00;;;6.50;;
10847;SDS011;5477;48.806;9.154;2022-12-07T01:41:13;7.80;;;6.37;;
10847;SDS011;5477;48.806;9.154;2022-12-07T01:46:36;8.13;;;6.03;;
10847;SDS011;5477;48.806;9.154;2022-12-07T01:49:04;8.00;;;6.63;;
10847;SDS011;5477;48.806;9.154;2022-12-07T01:51:37;8.20;;;6.63;;
10847;SDS011;5477;48.806;9.154;2022-12-07T01:54:08;8.67;;;6.77;;
10847;SDS011;5477;48.806;9.154;2022-12-07T01:56:38;8.60;;;6.93;;
10847;SDS011;5477;48.806;9.154;2022-12-07T01:59:10;9.17;;;6.70;;
10847;SDS011;5477;48.806;9.154;2022-12-07T02:01:38;9.03;;;6.87;;
10847;SDS011;5477;48.806;9.154;2022-12-07T02:04:06;8.97;;;6.63;;
10847;SDS011;5477;48.806;9.154;2022-12-07T02:06:34;8.70;;;7.13;;
10847;SDS011;5477;48.806;9.154;2022-12-07T02:09:04;10.50;;;7.00;;
10847;SDS011;5477;48.806;9.154;2022-12-07T02:11:33;8.83;;;6.97;;
10847;SDS011;5477;48.806;9.154;2022-12-07T02:14:01;8.77;;;6.67;;
10847;SDS011;5477;48.806;9.154;2022-12-07T02:16:31;8.97;;;6.80;;
10847;SDS011;5477;48.806;9.154;2022-12-07T02:19:14;8.83;;;6.60;;
10847;SDS011;5477;48.806;9.154;2022-12-07T02:22:11;8.17;;;6.83;;
10847;SDS011;5477;48.806;9.154;2022-12-07T02:24:57;8.03;;;6.37;;
10847;SDS011;5477;48.806;9.154;2022-12-07T02:27:38;8.10;;;5.67;;
10847;SDS011;5477;48.806;9.154;2022-12-07T02:30:14;9.53;;;6.40;;
10847;SDS011;5477;48.806;9.154;2022-12-07T02:32:44;8.13;;;6.00;;
10847;SDS011;5477;48.806;9.154;2022-12-07T02:35:18;8.03;;;6.13;;
10847;SDS011;5477;48.806;9.154;2022-12-07T02:38:02;10.87;;;6.43;;
10847;SDS011;5477;48.806;9.154;2022-12-07T02:40:38;8.90;;;6.27;;
10847;SDS011;5477;48.806;9.154;2022-12-07T02:43:11;8.73;;;6.50;;
10847;SDS011;5477;48.806;9.154;2022-12-07T02:45:43;9.17;;;6.93;;
10847;SDS011;5477;48.806;9.154;2022-12-07T02:48:15;8.60;;;6.50;;
10847;SDS011;5477;48.806;9.154;2022-12-07T02:50:48;8.53;;;6.47;;
10847;SDS011;5477;48.806;9.154;2022-12-07T02:56:01;7.77;;;6.40;;
10847;SDS011;5477;48.806;9.154;2022-12-07T02:58:37;8.27;;;6.37;;
10847;SDS011;5477;48.806;9.154;2022-12-07T03:01:15;10.33;;;6.93;;
10847;SDS011;5477;48.806;9.154;2022-12-07T03:03:55;9.27;;;6.60;;
10847;SDS011;5477;48.806;9.154;2022-12-07T03:06:31;7.90;;;6.37;;
10847;SDS011;5477;48.806;9.154;2022-12-07T03:09:09;10.00;;;7.20;;
10847;SDS011;5477;48.806;9.154;2022-12-07T03:11:42;7.60;;;5.97;;
10847;SDS011;5477;48.806;9.154;2022-12-07T03:14:17;8.27;;;6.27;;
10847;SDS011;5477;48.806;9.154;2022-12-07T03:16:51;7.97;;;6.47;;
10847;SDS011;5477;48.806;9.154;2022-12-07T03:19:21;8.40;;;6.20;;
10847;SDS011;5477;48.806;9.154;2022-12-07T03:21:52;7.33;;;5.90;;
10847;SDS011;5477;48.806;9.154;2022-12-07T03:24:24;8.90;;;6.53;;
10847;SDS011;5477;48.806;9.154;2022-12-07T03:26:56;8.27;;;6.40;;
10847;SDS011;5477;48.806;9.154;2022-12-07T03:29:30;7.50;;;5.77;;
10847;SDS011;5477;48.806;9.154;2022-12-07T03:32:04;7.93;;;6.20;;
10847;SDS011;5477;48.806;9.154;2022-12-07T03:34:38;8.30;;;6.17;;
10847;SDS011;5477;48.806;9.154;2022-12-07T03:37:12;7.53;;;6.03;;
10847;SDS011;5477;48.806;9.154;2022-12-07T03:39:46;8.47;;;6.17;;
10847;SDS011;5477;48.806;9.154;2022-12-07T03:42:20;8.80;;;6.00;;
10847;SDS011;5477;48.806;9.154;2022-12-07T03:44:48;7.93;;;6.17;;
10847;SDS011;5477;48.806;9.154;2022-12-07T03:47:20;7.93;;;6.07;;
10847;SDS011;5477;48.806;9.154;2022-12-07T03:49:55;7.27;;;5.83;;
10847;SDS011;5477;48.806;9.154;2022-12-07T03:52:28;6.90;;;5.53;;
10847;SDS011;5477;48.806;9.154;2022-12-07T03:55:02;8.07;;;5.77;;
10847;SDS011;5477;48.806;9.154;2022-12-07T03:57:33;7.43;;;5.30;;
10847;SDS011;5477;48.806;9.154;2022-12-07T04:00:04;6.97;;;5.27;;
10847;SDS011;5477;48.806;9.154;2022-12-07T04:02:41;7.27;;;5.60;;
10847;SDS011;5477;48.806;9.154;2022-12-07T04:05:10;7.63;;;5.40;;
10847;SDS011;5477;48.806;9.154;2022-12-07T04:07:38;7.00;;;5.47;;
10847;SDS011;5477;48.806;9.154;2022-12-07T04:10:07;6.10;;;4.67;;
10847;SDS011;5477;48.806;9.154;2022-12-07T04:12:36;6.43;;;4.80;;
10847;SDS011;5477;48.806;9.154;2022-12-07T04:15:05;7.27;;;5.30;;
10847;SDS011;5477;48.806;9.154;2022-12-07T04:17:33;5.63;;;4.80;;
10847;SDS011;5477;48.806;9.154;2022-12-07T04:20:03;6.13;;;4.90;;
10847;SDS011;5477;48.806;9.154;2022-12-07T04:22:32;5.97;;;4.63;;
10847;SDS011;5477;48.806;9.154;2022-12-07T04:25:00;4.90;;;3.87;;
10847;SDS011;5477;48.806;9.154;2022-12-07T04:27:28;6.63;;;4.07;;
10847;SDS011;5477;48.806;9.154;2022-12-07T04:29:56;5.63;;;3.83;;
10847;SDS011;5477;48.806;9.154;2022-12-07T04:32:24;5.27;;;4.17;;
10847;SDS011;5477;48.806;9.154;2022-12-07T04:34:52;3.90;;;3.43;;
10847;SDS011;5477;48.806;9.154;2022-12-07T04:37:22;4.53;;;3.83;;
10847;SDS011;5477;48.806;9.154;2022-12-07T04:39:50;7.30;;;3.80;;
10847;SDS011;5477;48.806;9.154;2022-12-07T04:42:18;4.30;;;3.20;;
10847;SDS011;5477;48.806;9.154;2022-12-07T04:44:46;4.70;;;3.83;;
10847;SDS011;5477;48.806;9.154;2022-12-07T04:47:14;6.73;;;5.00;;
10847;SDS011;5477;48.806;9.154;2022-12-07T04:49:42;6.47;;;4.80;;
10847;SDS011;5477;48.806;9.154;2022-12-07T04:52:10;8.17;;;5.63;;
10847;SDS011;5477;48.806;9.154;2022-12-07T04:54:39;6.17;;;4.70;;
10847;SDS011;5477;48.806;9.154;2022-12-07T04:57:07;7.13;;;4.90;;
10847;SDS011;5477;48.806;9.154;2022-12-07T04:59:35;5.87;;;4.50;;
10847;SDS011;5477;48.806;9.154;2022-12-07T05:02:10;6.03;;;3.63;;
10847;SDS011;5477;48.806;9.154;2022-12-07T05:04:38;5.33;;;4.00;;
10847;SDS011;5477;48.806;9.154;2022-12-07T05:07:06;4.97;;;3.80;;
10847;SDS011;5477;48.806;9.154;2022-12-07T05:09:34;4.83;;;3.90;;
10847;SDS011;5477;48.806;9.154;2022-12-07T05:12:03;5.97;;;4.20;;
10847;SDS011;5477;48.806;9.154;2022-12-07T05:14:31;4.30;;;3.73;;
10847;SDS011;5477;48.806;9.154;2022-12-07T05:16:59;5.23;;;3.90;;
10847;SDS011;5477;48.806;9.154;2022-12-07T05:19:27;5.80;;;4.33;;
10847;SDS011;5477;48.806;9.154;2022-12-07T05:21:55;5.70;;;4.30;;
10847;SDS011;5477;48.806;9.154;2022-12-07T05:24:23;13.20;;;7.43;;
10847;SDS011;5477;48.806;9.154;2022-12-07T05:26:51;13.33;;;7.33;;
10847;SDS011;5477;48.806;9.154;2022-12-07T05:29:20;14.90;;;9.93;;
10847;SDS011;5477;48.806;9.154;2022-12-07T05:31:49;12.97;;;6.57;;
10847;SDS011;5477;48.806;9.154;2022-12-07T05:34:17;8.33;;;5.50;;
10847;SDS011;5477;48.806;9.154;2022-12-07T05:36:45;13.43;;;7.57;;
10847;SDS011;5477;48.806;9.154;2022-12-07T05:39:13;10.80;;;6.27;;
10847;SDS011;5477;48.806;9.154;2022-12-07T05:41:41;14.37;;;8.33;;
10847;SDS011;5477;48.806;9.154;2022-12-07T05:44:43;26.03;;;12.53;;
10847;SDS011;5477;48.806;9.154;2022-12-07T05:47:12;6.87;;;5.27;;
10847;SDS011;5477;48.806;9.154;2022-12-07T05:49:41;7.93;;;5.47;;
10847;SDS011;5477;48.806;9.154;2022-12-07T05:52:10;8.97;;;5.73;;
10847;SDS011;5477;48.806;9.154;2022-12-07T05:54:37;6.30;;;5.37;;
10847;SDS011;5477;48.806;9.154;2022-12-07T05:57:05;7.00;;;5.27;;
10847;SDS011;5477;48.806;9.154;2022-12-07T05:59:33;7.17;;;5.17;;
10847;SDS011;5477;48.806;9.154;2022-12-07T06:02:02;5.87;;;4.60;;
10847;SDS011;5477;48.806;9.154;2022-12-07T06:04:32;6.77;;;5.03;;
10847;SDS011;5477;48.806;9.154;2022-12-07T06:07:02;8.13;;;5.70;;
10847;SDS011;5477;48.806;9.154;2022-12-07T06:09:30;6.63;;;4.70;;
10847;SDS011;5477;48.806;9.154;2022-12-07T06:11:58;7.57;;;4.90;;
10847;SDS011;5477;48.806;9.154;2022-12-07T06:14:43;5.60;;;4.70;;
10847;SDS011;5477;48.806;9.154;2022-12-07T06:17:12;6.73;;;4.80;;
10847;SDS011;5477;48.806;9.154;2022-12-07T06:19:41;6.67;;;4.83;;
10847;SDS011;5477;48.806;9.154;2022-12-07T06:22:09;6.80;;;4.77;;
10847;SDS011;5477;48.806;9.154;2022-12-07T06:24:38;7.07;;;4.67;;
10847;SDS011;5477;48.806;9.154;2022-12-07T06:27:06;6.40;;;4.60;;
10847;SDS011;5477;48.806;9.154;2022-12-07T06:29:34;6.37;;;4.60;;
10847;SDS011;5477;48.806;9.154;2022-12-07T06:32:02;6.53;;;4.70;;
10847;SDS011;5477;48.806;9.154;2022-12-07T06:34:32;7.97;;;4.77;;
10847;SDS011;5477;48.806;9.154;2022-12-07T06:37:00;6.03;;;4.53;;
10847;SDS011;5477;48.806;9.154;2022-12-07T06:39:29;6.13;;;4.60;;
10847;SDS011;5477;48.806;9.154;2022-12-07T06:41:57;6.10;;;4.60;;
10847;SDS011;5477;48.806;9.154;2022-12-07T06:44:25;6.50;;;4.67;;
10847;SDS011;5477;48.806;9.154;2022-12-07T06:46:54;5.27;;;4.10;;
10847;SDS011;5477;48.806;9.154;2022-12-07T06:49:44;7.37;;;4.30;;
10847;SDS011;5477;48.806;9.154;2022-12-07T06:52:11;6.40;;;4.20;;
10847;SDS011;5477;48.806;9.154;2022-12-07T06:54:39;5.23;;;3.97;;
10847;SDS011;5477;48.806;9.154;2022-12-07T06:57:07;4.70;;;3.30;;
10847;SDS011;5477;48.806;9.154;2022-12-07T06:59:35;6.37;;;4.13;;
10847;SDS011;5477;48.806;9.154;2022-12-07T07:02:03;7.00;;;5.13;;
10847;SDS011;5477;48.806;9.154;2022-12-07T07:04:31;6.10;;;4.13;;
10847;SDS011;5477;48.806;9.154;2022-12-07T07:07:00;5.60;;;4.03;;
10847;SDS011;5477;48.806;9.154;2022-12-07T07:09:28;4.07;;;3.43;;
10847;SDS011;5477;48.806;9.154;2022-12-07T07:11:56;5.67;;;3.50;;
10847;SDS011;5477;48.806;9.154;2022-12-07T07:14:24;5.30;;;3.27;;
10847;SDS011;5477;48.806;9.154;2022-12-07T07:16:52;5.37;;;3.73;;
10847;SDS011;5477;48.806;9.154;2022-12-07T07:19:20;4.17;;;3.33;;
10847;SDS011;5477;48.806;9.154;2022-12-07T07:21:48;5.30;;;3.00;;
10847;SDS011;5477;48.806;9.154;2022-12-07T07:24:17;4.33;;;2.97;;
10847;SDS011;5477;48.806;9.154;2022-12-07T07:26:45;3.10;;;2.80;;
10847;SDS011;5477;48.806;9.154;2022-12-07T07:29:13;7.67;;;3.10;;
10847;SDS011;5477;48.806;9.154;2022-12-07T07:31:41;4.37;;;3.07;;
10847;SDS011;5477;48.806;9.154;2022-12-07T07:34:09;4.13;;;3.07;;
10847;SDS011;5477;48.806;9.154;2022-12-07T07:36:37;3.53;;;3.00;;
10847;SDS011;5477;48.806;9.154;2022-12-07T07:39:05;3.77;;;2.97;;
10847;SDS011;5477;48.806;9.154;2022-12-07T07:41:34;4.37;;;3.50;;
10847;SDS011;5477;48.806;9.154;2022-12-07T07:44:02;4.70;;;3.20;;
10847;SDS011;5477;48.806;9.154;2022-12-07T07:46:30;4.50;;;3.20;;
10847;SDS011;5477;48.806;9.154;2022-12-07T07:48:59;3.43;;;2.77;;
10847;SDS011;5477;48.806;9.154;2022-12-07T07:51:27;3.57;;;3.00;;
10847;SDS011;5477;48.806;9.154;2022-12-07T07:53:55;7.90;;;3.00;;
10847;SDS011;5477;48.806;9.154;2022-12-07T07:56:23;3.97;;;3.20;;
10847;SDS011;5477;48.806;9.154;2022-12-07T07:58:52;9.17;;;3.33;;
10847;SDS011;5477;48.806;9.154;2022-12-07T08:01:21;3.20;;;2.67;;
10847;SDS011;5477;48.806;9.154;2022-12-07T08:03:49;3.37;;;2.70;;
10847;SDS011;5477;48.806;9.154;2022-12-07T08:06:17;3.73;;;3.00;;
10847;SDS011;5477;48.806;9.154;2022-12-07T08:08:45;3.37;;;2.63;;
10847;SDS011;5477;48.806;9.154;2022-12-07T08:11:13;3.97;;;2.90;;
10847;SDS011;5477;48.806;9.154;2022-12-07T08:13:41;4.40;;;3.10;;
10847;SDS011;5477;48.806;9.154;2022-12-07T08:16:10;5.23;;;3.03;;
10847;SDS011;5477;48.806;9.154;2022-12-07T08:18:38;4.83;;;2.90;;
10847;SDS011;5477;48.806;9.154;2022-12-07T08:21:08;3.90;;;2.63;;
10847;SDS011;5477;48.806;9.154;2022-12-07T08:23:38;3.80;;;3.07;;
10847;SDS011;5477;48.806;9.154;2022-12-07T08:26:07;3.33;;;2.87;;
10847;SDS011;5477;48.806;9.154;2022-12-07T08:28:36;4.43;;;3.37;;
10847;SDS011;5477;48.806;9.154;2022-12-07T08:31:05;5.10;;;4.00;;
10847;SDS011;5477;48.806;9.154;2022-12-07T08:33:36;5.83;;;3.83;;
10847;SDS011;5477;48.806;9.154;2022-12-07T08:36:05;9.33;;;5.77;;
10847;SDS011;5477;48.806;9.154;2022-12-07T08:38:35;6.37;;;4.13;;
10847;SDS011;5477;48.806;9.154;2022-12-07T08:41:03;7.43;;;4.67;;
10847;SDS011;5477;48.806;9.154;2022-12-07T08:43:32;5.63;;;3.40;;
10847;SDS011;5477;48.806;9.154;2022-12-07T08:46:03;5.63;;;3.53;;
10847;SDS011;5477;48.806;9.154;2022-12-07T08:48:36;5.10;;;4.10;;
10847;SDS011;5477;48.806;9.154;2022-12-07T08:51:06;5.53;;;3.33;;
10847;SDS011;5477;48.806;9.154;2022-12-07T08:53:34;3.77;;;2.93;;
10847;SDS011;5477;48.806;9.154;2022-12-07T08:56:04;11.33;;;7.70;;
10847;SDS011;5477;48.806;9.154;2022-12-07T08:58:33;9.20;;;5.77;;
10847;SDS011;5477;48.806;9.154;2022-12-07T09:01:03;12.30;;;8.43;;
10847;SDS011;5477;48.806;9.154;2022-12-07T09:03:31;5.03;;;4.13;;
10847;SDS011;5477;48.806;9.154;2022-12-07T09:06:00;4.37;;;3.70;;
10847;SDS011;5477;48.806;9.154;2022-12-07T09:08:29;4.13;;;3.27;;
10847;SDS011;5477;48.806;9.154;2022-12-07T09:11:01;3.83;;;3.00;;
10847;SDS011;5477;48.806;9.154;2022-12-07T09:13:29;4.07;;;2.87;;
10847;SDS011;5477;48.806;9.154;2022-12-07T09:15:56;3.80;;;2.93;;
10847;SDS011;5477;48.806;9.154;2022-12-07T09:18:24;4.47;;;2.77;;
10847;SDS011;5477;48.806;9.154;2022-12-07T09:20:52;2.83;;;2.20;;
10847;SDS011;5477;48.806;9.154;2022-12-07T09:23:22;3.43;;;2.57;;
10847;SDS011;5477;48.806;9.154;2022-12-07T09:25:49;7.03;;;2.80;;
10847;SDS011;5477;48.806;9.154;2022-12-07T09:28:17;4.20;;;2.73;;
10847;SDS011;5477;48.806;9.154;2022-12-07T09:30:45;2.93;;;2.30;;
10847;SDS011;5477;48.806;9.154;2022-12-07T09:33:34;3.83;;;2.53;;
10847;SDS011;5477;48.806;9.154;2022-12-07T09:36:02;3.53;;;2.57;;
10847;SDS011;5477;48.806;9.154;2022-12-07T09:38:32;5.90;;;3.10;;
10847;SDS011;5477;48.806;9.154;2022-12-07T09:41:03;7.13;;;4.27;;
10847;SDS011;5477;48.806;9.154;2022-12-07T09:43:33;4.60;;;3.10;;
10847;SDS011;5477;48.806;9.154;2022-12-07T09:46:04;2.87;;;2.37;;
10847;SDS011;5477;48.806;9.154;2022-12-07T09:48:33;3.43;;;3.10;;
10847;SDS011;5477;48.806;9.154;2022-12-07T09:51:10;5.33;;;3.60;;
10847;SDS011;5477;48.806;9.154;2022-12-07T09:53:50;4.03;;;3.17;;
10847;SDS011;5477;48.806;9.154;2022-12-07T09:56:20;2.97;;;2.23;;
10847;SDS011;5477;48.806;9.154;2022-12-07T09:58:49;3.10;;;2.40;;
10847;SDS011;5477;48.806;9.154;2022-12-07T10:01:18;2.80;;;2.37;;
10847;SDS011;5477;48.806;9.154;2022-12-07T10:03:49;3.00;;;2.40;;
10847;SDS011;5477;48.806;9.154;2022-12-07T10:06:19;4.67;;;2.90;;
10847;SDS011;5477;48.806;9.154;2022-12-07T10:08:47;4.13;;;3.20;;
10847;SDS011;5477;48.806;9.154;2022-12-07T10:11:17;3.60;;;2.87;;
10847;SDS011;5477;48.806;9.154;2022-12-07T10:13:45;3.13;;;2.37;;
10847;SDS011;5477;48.806;9.154;2022-12-07T10:16:32;3.23;;;2.70;;
10847;SDS011;5477;48.806;9.154;2022-12-07T10:19:17;3.57;;;2.93;;
10847;SDS011;5477;48.806;9.154;2022-12-07T10:22:00;2.97;;;2.57;;
10847;SDS011;5477;48.806;9.154;2022-12-07T10:24:30;4.03;;;2.87;;
10847;SDS011;5477;48.806;9.154;2022-12-07T10:27:00;4.97;;;2.93;;
10847;SDS011;5477;48.806;9.154;2022-12-07T10:29:29;5.60;;;3.40;;
10847;SDS011;5477;48.806;9.154;2022-12-07T10:31:59;3.43;;;2.87;;
10847;SDS011;5477;48.806;9.154;2022-12-07T10:34:29;5.43;;;3.07;;
10847;SDS011;5477;48.806;9.154;2022-12-07T10:37:12;5.33;;;3.03;;
10847;SDS011;5477;48.806;9.154;2022-12-07T10:39:43;6.27;;;2.90;;
10847;SDS011;5477;48.806;9.154;2022-12-07T10:42:17;8.13;;;4.30;;
10847;SDS011;5477;48.806;9.154;2022-12-07T10:44:46;4.67;;;3.33;;
10847;SDS011;5477;48.806;9.154;2022-12-07T10:47:20;6.27;;;3.50;;
10847;SDS011;5477;48.806;9.154;2022-12-07T10:50:14;3.70;;;3.07;;
10847;SDS011;5477;48.806;9.154;2022-12-07T10:53:07;6.13;;;3.43;;
10847;SDS011;5477;48.806;9.154;2022-12-07T10:55:56;2.80;;;2.43;;
10847;SDS011;5477;48.806;9.154;2022-12-07T10:58:47;4.30;;;3.10;;
10847;SDS011;5477;48.806;9.154;2022-12-07T11:01:28;4.07;;;3.00;;
10847;SDS011;5477;48.806;9.154;2022-12-07T11:04:07;5.10;;;2.50;;
10847;SDS011;5477;48.806;9.154;2022-12-07T11:06:46;3.17;;;2.53;;
10847;SDS011;5477;48.806;9.154;2022-12-07T11:09:26;5.00;;;3.77;;
10847;SDS011;5477;48.806;9.154;2022-12-07T11:12:25;2.90;;;2.50;;
10847;SDS011;5477;48.806;9.154;2022-12-07T11:15:10;3.73;;;2.67;;
10847;SDS011;5477;48.806;9.154;2022-12-07T11:17:45;4.83;;;2.63;;
10847;SDS011;5477;48.806;9.154;2022-12-07T11:20:26;4.17;;;3.10;;
10847;SDS011;5477;48.806;9.154;2022-12-07T11:23:04;3.30;;;2.60;;
10847;SDS011;5477;48.806;9.154;2022-12-07T11:25:48;2.50;;;2.07;;
10847;SDS011;5477;48.806;9.154;2022-12-07T11:28:25;7.83;;;5.40;;
10847;SDS011;5477;48.806;9.154;2022-12-07T11:31:07;7.47;;;4.50;;
10847;SDS011;5477;48.806;9.154;2022-12-07T11:33:44;3.90;;;3.37;;
10847;SDS011;5477;48.806;9.154;2022-12-07T11:36:17;3.07;;;2.30;;
10847;SDS011;5477;48.806;9.154;2022-12-07T11:39:02;8.03;;;5.37;;
10847;SDS011;5477;48.806;9.154;2022-12-07T11:41:32;6.60;;;4.73;;
10847;SDS011;5477;48.806;9.154;2022-12-07T11:44:05;4.60;;;3.63;;
10847;SDS011;5477;48.806;9.154;2022-12-07T11:46:41;6.73;;;3.20;;
10847;SDS011;5477;48.806;9.154;2022-12-07T11:49:15;6.53;;;4.17;;
10847;SDS011;5477;48.806;9.154;2022-12-07T11:51:48;4.10;;;3.23;;
10847;SDS011;5477;48.806;9.154;2022-12-07T11:54:21;4.57;;;3.50;;
10847;SDS011;5477;48.806;9.154;2022-12-07T11:56:53;5.03;;;3.70;;
10847;SDS011;5477;48.806;9.154;2022-12-07T11:59:29;5.37;;;4.10;;
10847;SDS011;5477;48.806;9.154;2022-12-07T12:02:07;4.30;;;3.73;;
10847;SDS011;5477;48.806;9.154;2022-12-07T12:04:45;4.97;;;3.90;;
10847;SDS011;5477;48.806;9.154;2022-12-07T12:07:19;5.23;;;3.63;;
10847;SDS011;5477;48.806;9.154;2022-12-07T12:10:14;6.90;;;4.07;;
10847;SDS011;5477;48.806;9.154;2022-12-07T12:16:01;5.13;;;4.30;;
10847;SDS011;5477;48.806;9.154;2022-12-07T12:18:54;4.73;;;3.57;;
10847;SDS011;5477;48.806;9.154;2022-12-07T12:21:31;6.23;;;4.33;;
10847;SDS011;5477;48.806;9.154;2022-12-07T12:24:00;4.97;;;4.47;;
10847;SDS011;5477;48.806;9.154;2022-12-07T12:26:32;5.93;;;3.97;;
10847;SDS011;5477;48.806;9.154;2022-12-07T12:29:04;4.83;;;4.10;;
10847;SDS011;5477;48.806;9.154;2022-12-07T12:31:35;5.70;;;3.97;;
10847;SDS011;5477;48.806;9.154;2022-12-07T12:37:00;3.93;;;3.33;;
10847;SDS011;5477;48.806;9.154;2022-12-07T12:39:28;5.77;;;3.97;;
10847;SDS011;5477;48.806;9.154;2022-12-07T12:41:57;7.53;;;4.70;;
10847;SDS011;5477;48.806;9.154;2022-12-07T12:44:39;5.60;;;3.90;;
10847;SDS011;5477;48.806;9.154;2022-12-07T12:50:19;8.33;;;4.30;;
10847;SDS011;5477;48.806;9.154;2022-12-07T12:52:55;6.10;;;4.40;;
10847;SDS011;5477;48.806;9.154;2022-12-07T12:58:35;5.53;;;4.23;;
10847;SDS011;5477;48.806;9.154;2022-12-07T13:04:25;5.00;;;3.90;;
10847;SDS011;5477;48.806;9.154;2022-12-07T13:10:33;5.07;;;3.77;;
10847;SDS011;5477;48.806;9.154;2022-12-07T13:22:34;5.53;;;3.70;;
10847;SDS011;5477;48.806;9.154;2022-12-07T13:25:11;5.63;;;4.07;;
10847;SDS011;5477;48.806;9.154;2022-12-07T13:27:48;5.50;;;3.83;;
10847;SDS011;5477;48.806;9.154;2022-12-07T13:30:23;7.47;;;3.83;;
10847;SDS011;5477;48.806;9.154;2022-12-07T13:32:52;4.67;;;3.77;;
10847;SDS011;5477;48.806;9.154;2022-12-07T13:35:28;5.00;;;4.03;;
10847;SDS011;5477;48.806;9.154;2022-12-07T13:37:57;5.67;;;3.60;;
10847;SDS011;5477;48.806;9.154;2022-12-07T13:40:25;4.87;;;3.50;;
10847;SDS011;5477;48.806;9.154;2022-12-07T13:42:58;7.40;;;4.23;;
10847;SDS011;5477;48.806;9.154;2022-12-07T13:45:28;7.17;;;5.07;;
10847;SDS011;5477;48.806;9.154;2022-12-07T13:48:17;6.83;;;4.50;;
10847;SDS011;5477;48.806;9.154;2022-12-07T13:50:54;6.80;;;4.60;;
10847;SDS011;5477;48.806;9.154;2022-12-07T13:53:23;6.53;;;4.77;;
10847;SDS011;5477;48.806;9.154;2022-12-07T13:55:54;8.07;;;4.30;;
10847;SDS011;5477;48.806;9.154;2022-12-07T13:58:24;6.90;;;4.43;;
10847;SDS011;5477;48.806;9.154;2022-12-07T14:00:52;6.47;;;4.70;;
10847;SDS011;5477;48.806;9.154;2022-12-07T14:03:25;7.43;;;4.23;;
10847;SDS011;5477;48.806;9.154;2022-12-07T14:06:04;9.50;;;5.20;;
10847;SDS011;5477;48.806;9.154;2022-12-07T14:08:34;8.40;;;5.30;;
10847;SDS011;5477;48.806;9.154;2022-12-07T14:11:02;6.03;;;4.73;;
10847;SDS011;5477;48.806;9.154;2022-12-07T14:13:32;10.37;;;5.17;;
10847;SDS011;5477;48.806;9.154;2022-12-07T14:16:01;5.93;;;4.50;;
10847;SDS011;5477;48.806;9.154;2022-12-07T14:18:34;5.97;;;4.57;;
10847;SDS011;5477;48.806;9.154;2022-12-07T14:21:05;5.50;;;3.93;;
10847;SDS011;5477;48.806;9.154;2022-12-07T14:23:41;6.30;;;4.80;;
10847;SDS011;5477;48.806;9.154;2022-12-07T14:26:11;6.20;;;4.67;;
10847;SDS011;5477;48.806;9.154;2022-12-07T14:28:42;6.50;;;4.77;;
10847;SDS011;5477;48.806;9.154;2022-12-07T14:31:11;9.77;;;5.37;;
10847;SDS011;5477;48.806;9.154;2022-12-07T14:33:49;22.57;;;15.47;;
10847;SDS011;5477;48.806;9.154;2022-12-07T14:36:17;8.50;;;4.80;;
10847;SDS011;5477;48.806;9.154;2022-12-07T14:38:45;8.43;;;6.67;;
10847;SDS011;5477;48.806;9.154;2022-12-07T14:41:14;9.80;;;6.57;;
10847;SDS011;5477;48.806;9.154;2022-12-07T14:44:07;8.87;;;5.80;;
10847;SDS011;5477;48.806;9.154;2022-12-07T14:46:49;6.80;;;5.37;;
10847;SDS011;5477;48.806;9.154;2022-12-07T14:49:38;8.90;;;4.43;;
10847;SDS011;5477;48.806;9.154;2022-12-07T14:52:06;8.70;;;4.87;;
10847;SDS011;5477;48.806;9.154;2022-12-07T14:55:00;6.27;;;4.50;;
10847;SDS011;5477;48.806;9.154;2022-12-07T14:57:29;7.20;;;4.70;;
10847;SDS011;5477;48.806;9.154;2022-12-07T14:59:58;5.63;;;4.40;;
10847;SDS011;5477;48.806;9.154;2022-12-07T15:02:26;8.20;;;4.83;;
10847;SDS011;5477;48.806;9.154;2022-12-07T15:04:54;6.00;;;4.90;;
10847;SDS011;5477;48.806;9.154;2022-12-07T15:07:22;8.23;;;4.60;;
10847;SDS011;5477;48.806;9.154;2022-12-07T15:09:50;6.60;;;4.17;;
10847;SDS011;5477;48.806;9.154;2022-12-07T15:12:18;5.57;;;4.50;;
10847;SDS011;5477;48.806;9.154;2022-12-07T15:14:45;5.33;;;4.03;;
10847;SDS011;5477;48.806;9.154;2022-12-07T15:17:15;6.60;;;4.00;;
10847;SDS011;5477;48.806;9.154;2022-12-07T15:19:56;5.67;;;4.30;;
10847;SDS011;5477;48.806;9.154;2022-12-07T15:22:24;6.33;;;4.37;;
10847;SDS011;5477;48.806;9.154;2022-12-07T15:24:52;6.03;;;4.23;;
10847;SDS011;5477;48.806;9.154;2022-12-07T15:27:20;5.17;;;3.83;;
10847;SDS011;5477;48.806;9.154;2022-12-07T15:29:48;7.50;;;4.23;;
10847;SDS011;5477;48.806;9.154;2022-12-07T15:32:18;7.67;;;5.07;;
10847;SDS011;5477;48.806;9.154;2022-12-07T15:34:46;10.00;;;4.93;;
10847;SDS011;5477;48.806;9.154;2022-12-07T15:37:14;7.47;;;5.37;;
10847;SDS011;5477;48.806;9.154;2022-12-07T15:39:42;8.70;;;5.90;;
10847;SDS011;5477;48.806;9.154;2022-12-07T15:42:13;7.80;;;5.27;;
10847;SDS011;5477;48.806;9.154;2022-12-07T15:44:41;6.33;;;5.10;;
10847;SDS011;5477;48.806;9.154;2022-12-07T15:47:29;7.97;;;5.13;;
10847;SDS011;5477;48.806;9.154;2022-12-07T15:50:02;7.90;;;5.23;;
10847;SDS011;5477;48.806;9.154;2022-12-07T15:52:31;6.73;;;5.20;;
10847;SDS011;5477;48.806;9.154;2022-12-07T15:54:59;7.67;;;5.47;;
10847;SDS011;5477;48.806;9.154;2022-12-07T15:57:30;6.33;;;4.97;;
10847;SDS011;5477;48.806;9.154;2022-12-07T15:59:58;9.23;;;6.20;;
10847;SDS011;5477;48.806;9.154;2022-12-07T16:02:26;8.03;;;6.10;;